Time;durP1;ratioP1;P1;durP2;ratioP2;P2;SDS_P1;SDS_P2;PMS_P1;PMS_P2;Temp;Humidity;BMP_temperature;BMP_pressure;BME280_temperature;BME280_humidity;BME280_pressure;Samples;Min_cycle;Max_cycle;Signal;HPM_P1;HPM_P2
2024/03/21 00:01:39;;;;;;;9.93;5.70;;;5.30;99.90;;;;;;4161848;28;20433;-56
2024/03/21 00:03:41;;;;;;;15.07;6.60;;;5.30;99.90;;;;;;4160548;28;20363;-56
2024/03/21 00:05:42;;;;;;;13.80;5.97;;;5.30;99.90;;;;;;4161517;28;20485;-55
2024/03/21 00:07:47;;;;;;;12.57;6.33;;;5.30;99.90;;;;;;4161221;28;20484;-57
2024/03/21 00:09:49;;;;;;;15.47;6.77;;;5.30;99.90;;;;;;4161571;28;20029;-53
2024/03/21 00:11:50;;;;;;;16.40;6.70;;;5.30;99.90;;;;;;4160714;28;20053;-55
2024/03/21 00:13:51;;;;;;;10.73;6.60;;;5.30;99.90;;;;;;4163564;28;20117;-51
2024/03/21 00:15:52;;;;;;;11.20;6.10;;;5.30;99.90;;;;;;4177286;28;20037;-53
2024/03/21 00:17:54;;;;;;;10.93;6.27;;;5.30;99.90;;;;;;4176758;28;20074;-55
2024/03/21 00:19:55;;;;;;;17.57;7.40;;;5.40;99.90;;;;;;4177988;28;20452;-52
2024/03/21 00:21:57;;;;;;;16.20;6.53;;;5.40;99.90;;;;;;4176536;28;20491;-57
2024/03/21 00:23:58;;;;;;;14.47;6.33;;;5.40;99.90;;;;;;4178021;28;20033;-53
2024/03/21 00:26:00;;;;;;;15.00;6.70;;;5.40;99.90;;;;;;4176334;28;20041;-51
2024/03/21 00:28:02;;;;;;;14.77;6.60;;;5.40;99.90;;;;;;4177900;28;20033;-54
2024/03/21 00:30:07;;;;;;;12.77;6.33;;;5.40;99.90;;;;;;4176925;28;20036;-53
2024/03/21 00:32:08;;;;;;;14.33;6.03;;;5.50;99.90;;;;;;4177565;28;20033;-53
2024/03/21 00:34:10;;;;;;;12.93;6.60;;;5.40;99.90;;;;;;4176285;28;20041;-56
2024/03/21 00:36:11;;;;;;;10.33;5.63;;;5.40;99.90;;;;;;4177223;28;20054;-56
2024/03/21 00:38:13;;;;;;;9.40;6.33;;;5.40;99.90;;;;;;4176743;28;20033;-50
2024/03/21 00:40:14;;;;;;;11.93;6.20;;;5.40;99.90;;;;;;4177010;28;20045;-55
2024/03/21 00:42:16;;;;;;;11.77;5.87;;;5.40;99.90;;;;;;4172936;28;20501;-54
2024/03/21 00:44:17;;;;;;;10.20;6.07;;;5.40;99.90;;;;;;4159880;28;20489;-55
2024/03/21 00:46:18;;;;;;;11.60;6.63;;;5.30;99.90;;;;;;4160833;28;20030;-54
2024/03/21 00:48:20;;;;;;;10.30;6.13;;;5.30;99.90;;;;;;4159972;28;20056;-50
2024/03/21 00:50:21;;;;;;;14.73;6.73;;;5.20;99.90;;;;;;4161184;28;20045;-54
2024/03/21 00:52:22;;;;;;;13.00;7.17;;;5.20;99.90;;;;;;4159928;28;20079;-53
2024/03/21 00:54:23;;;;;;;12.83;7.30;;;5.20;99.90;;;;;;4160644;28;20413;-56
2024/03/21 00:56:25;;;;;;;15.50;6.77;;;5.10;99.90;;;;;;4159894;28;20037;-50
2024/03/21 00:58:26;;;;;;;14.53;6.43;;;5.10;99.90;;;;;;4161455;28;20133;-53
2024/03/21 01:00:27;;;;;;;11.43;6.07;;;5.10;99.90;;;;;;4161073;28;20080;-51
2024/03/21 01:02:28;;;;;;;15.47;7.10;;;5.00;99.90;;;;;;4177494;28;20091;-53
2024/03/21 01:04:30;;;;;;;11.80;6.60;;;5.00;99.90;;;;;;4175789;28;20040;-52
2024/03/21 01:06:31;;;;;;;11.30;7.00;;;5.00;99.90;;;;;;4176829;28;20086;-52
2024/03/21 01:08:32;;;;;;;12.17;6.77;;;4.90;99.90;;;;;;4176114;28;20454;-56
2024/03/21 01:10:34;;;;;;;9.67;6.30;;;4.90;99.90;;;;;;4175195;28;20114;-52
2024/03/21 01:12:35;;;;;;;10.97;6.53;;;4.90;99.90;;;;;;4160113;28;20501;-51
2024/03/21 01:14:36;;;;;;;10.83;6.73;;;4.80;99.90;;;;;;4160272;28;20095;-56
2024/03/21 01:16:38;;;;;;;12.77;6.90;;;4.70;99.90;;;;;;4159926;28;20072;-50
2024/03/21 01:18:40;;;;;;;12.13;6.90;;;4.70;99.90;;;;;;4160165;28;20386;-52
2024/03/21 01:20:41;;;;;;;13.17;6.63;;;4.70;99.90;;;;;;4166987;28;20075;-52
2024/03/21 01:22:43;;;;;;;20.43;7.50;;;4.70;99.90;;;;;;4176228;28;20086;-53
2024/03/21 01:24:45;;;;;;;11.77;6.70;;;4.60;99.90;;;;;;4176891;28;20079;-53
2024/03/21 01:26:47;;;;;;;12.50;7.13;;;4.60;99.90;;;;;;4175705;28;20045;-49
2024/03/21 01:28:48;;;;;;;12.13;6.87;;;4.60;99.90;;;;;;4176984;28;20087;-51
2024/03/21 01:30:49;;;;;;;10.30;6.43;;;4.50;99.90;;;;;;4175673;28;20186;-51
2024/03/21 01:32:50;;;;;;;13.47;6.63;;;4.50;99.90;;;;;;4176964;28;20266;-51
2024/03/21 01:34:52;;;;;;;12.63;6.90;;;4.50;99.90;;;;;;4175787;28;20115;-49
2024/03/21 01:36:53;;;;;;;12.77;6.43;;;4.50;99.90;;;;;;4175895;28;20298;-50
2024/03/21 01:38:54;;;;;;;12.30;7.37;;;4.40;99.90;;;;;;4175783;28;20308;-50
2024/03/21 01:40:55;;;;;;;11.80;6.33;;;4.40;99.90;;;;;;4176867;28;20693;-51
2024/03/21 01:42:57;;;;;;;11.43;6.77;;;4.40;99.90;;;;;;4176395;28;20037;-52
2024/03/21 01:45:05;;;;;;;13.63;6.30;;;4.30;99.90;;;;;;4176015;28;20277;-52
2024/03/21 01:47:07;;;;;;;13.30;6.90;;;4.30;99.90;;;;;;4176162;28;20600;-55
2024/03/21 01:49:09;;;;;;;13.73;7.23;;;4.30;99.90;;;;;;4176296;28;20750;-52
2024/03/21 01:51:13;;;;;;;14.27;7.57;;;4.30;99.90;;;;;;4167678;28;20049;-51
2024/03/21 01:53:14;;;;;;;11.40;6.70;;;4.20;99.90;;;;;;4159522;28;20290;-51
2024/03/21 01:55:16;;;;;;;13.07;6.47;;;4.20;99.90;;;;;;4160828;28;20091;-51
2024/03/21 01:57:18;;;;;;;13.30;7.13;;;4.20;99.90;;;;;;4161950;28;20298;-51
2024/03/21 01:59:19;;;;;;;12.50;6.97;;;4.10;99.90;;;;;;4163349;28;20673;-51
2024/03/21 02:01:28;;;;;;;13.00;6.53;;;4.10;99.90;;;;;;4166848;28;20279;-49
2024/03/21 02:03:30;;;;;;;10.83;6.40;;;4.10;99.90;;;;;;4163570;28;20340;-54
2024/03/21 02:05:32;;;;;;;10.63;6.47;;;4.10;99.90;;;;;;4162647;28;20278;-52
2024/03/21 02:07:34;;;;;;;11.80;5.87;;;4.00;99.90;;;;;;4163934;28;20405;-49
2024/03/21 02:09:35;;;;;;;12.53;6.63;;;4.00;99.90;;;;;;4162255;28;20283;-53
2024/03/21 02:11:37;;;;;;;10.40;5.77;;;4.00;99.90;;;;;;4163742;28;20320;-49
2024/03/21 02:13:39;;;;;;;13.83;7.27;;;4.00;99.90;;;;;;4162531;28;20282;-55
2024/03/21 02:15:40;;;;;;;12.87;6.73;;;4.00;99.90;;;;;;4162781;28;20275;-52
2024/03/21 02:17:42;;;;;;;14.37;6.50;;;4.00;99.90;;;;;;4162080;28;20049;-50
2024/03/21 02:19:43;;;;;;;16.53;7.40;;;4.00;99.90;;;;;;4162541;28;20763;-50
2024/03/21 02:24:07;;;;;;;12.93;7.00;;;3.90;99.90;;;;;;4163361;28;20274;-55
2024/03/21 02:26:08;;;;;;;11.53;7.40;;;3.90;99.90;;;;;;4162484;28;20274;-53
2024/03/21 02:28:09;;;;;;;18.40;8.97;;;3.90;99.90;;;;;;4162453;28;20263;-49
2024/03/21 02:30:11;;;;;;;20.80;10.60;;;3.90;99.90;;;;;;4162870;28;20743;-55
2024/03/21 02:32:12;;;;;;;22.30;9.73;;;3.90;99.90;;;;;;4161359;28;20292;-51
2024/03/21 02:34:14;;;;;;;22.63;9.93;;;3.90;99.90;;;;;;4163017;28;20762;-52
2024/03/21 02:36:16;;;;;;;21.83;11.27;;;3.70;99.90;;;;;;4161895;28;20287;-51
2024/03/21 02:38:17;;;;;;;31.10;14.27;;;3.70;99.90;;;;;;4163125;28;20282;-55
2024/03/21 02:40:18;;;;;;;24.43;10.43;;;3.70;99.90;;;;;;4161582;28;20278;-49
2024/03/21 02:42:21;;;;;;;14.13;8.07;;;3.70;99.90;;;;;;4163295;28;20341;-53
2024/03/21 02:44:25;;;;;;;15.43;8.67;;;3.60;99.90;;;;;;4162241;28;20336;-54
2024/03/21 02:46:26;;;;;;;20.23;9.27;;;3.60;99.90;;;;;;4163161;28;20739;-51
2024/03/21 02:48:28;;;;;;;16.40;8.77;;;3.60;99.90;;;;;;4161775;28;20666;-55
2024/03/21 02:50:30;;;;;;;14.73;8.07;;;3.60;99.90;;;;;;4164318;28;20290;-58
2024/03/21 02:52:31;;;;;;;17.83;7.40;;;3.50;99.90;;;;;;4194685;28;20679;-56
2024/03/21 02:54:32;;;;;;;14.50;7.70;;;3.50;99.90;;;;;;4184776;28;20312;-53
2024/03/21 02:56:34;;;;;;;14.80;8.23;;;3.40;99.90;;;;;;4162037;28;20344;-55
2024/03/21 02:58:35;;;;;;;16.47;7.83;;;3.40;99.90;;;;;;4162288;28;20270;-58
2024/03/21 03:00:36;;;;;;;15.07;7.83;;;3.40;99.90;;;;;;4161905;28;20669;-55
2024/03/21 03:02:39;;;;;;;15.40;7.93;;;3.40;99.90;;;;;;4161502;28;20259;-50
2024/03/21 03:04:40;;;;;;;14.77;8.17;;;3.40;99.90;;;;;;4162398;28;20681;-55
2024/03/21 03:06:42;;;;;;;17.67;8.83;;;3.30;99.90;;;;;;4161188;28;20263;-55
2024/03/21 03:08:43;;;;;;;15.43;8.00;;;3.30;99.90;;;;;;4162299;28;20328;-56
2024/03/21 03:10:44;;;;;;;16.70;7.67;;;3.30;99.90;;;;;;4161491;28;20812;-55
2024/03/21 03:12:46;;;;;;;10.07;6.90;;;3.20;99.90;;;;;;4162416;28;20845;-55
2024/03/21 03:14:47;;;;;;;12.47;6.13;;;3.20;99.90;;;;;;4161476;28;20270;-54
2024/03/21 03:16:48;;;;;;;13.27;7.10;;;3.20;99.90;;;;;;4162356;28;20291;-53
2024/03/21 03:18:49;;;;;;;13.53;7.60;;;3.20;99.90;;;;;;4161530;28;20325;-57
2024/03/21 03:20:50;;;;;;;16.07;8.37;;;3.20;99.90;;;;;;4162451;28;20816;-51
2024/03/21 03:22:52;;;;;;;13.37;7.07;;;3.20;99.90;;;;;;4161152;28;20788;-59
2024/03/21 03:24:53;;;;;;;13.37;7.07;;;3.20;99.90;;;;;;4162307;28;20345;-55
2024/03/21 03:26:55;;;;;;;14.23;6.67;;;3.20;99.90;;;;;;4161358;28;20662;-51
2024/03/21 03:28:56;;;;;;;11.47;6.50;;;3.20;99.90;;;;;;4162059;28;20722;-53
2024/03/21 03:30:57;;;;;;;13.27;6.37;;;3.20;99.90;;;;;;4161478;28;20259;-54
2024/03/21 03:33:05;;;;;;;11.60;6.47;;;3.20;99.90;;;;;;4161546;28;20263;-55
2024/03/21 03:37:27;;;;;;;11.45;6.00;;;3.20;99.90;;;;;;4161639;28;20302;-54
2024/03/21 03:39:29;;;;;;;12.33;6.03;;;3.20;99.90;;;;;;4161918;28;20095;-52
2024/03/21 03:41:30;;;;;;;11.30;6.20;;;3.30;99.90;;;;;;4170352;28;20324;-52
2024/03/21 03:43:31;;;;;;;14.83;7.50;;;3.30;99.90;;;;;;4178444;28;20859;-55
2024/03/21 03:45:33;;;;;;;16.57;8.73;;;3.30;99.90;;;;;;4166393;28;20323;-52
2024/03/21 03:47:34;;;;;;;14.43;6.50;;;3.20;99.90;;;;;;4161959;28;20317;-51
2024/03/21 03:49:35;;;;;;;13.73;7.57;;;3.10;99.90;;;;;;4160836;28;20278;-54
2024/03/21 03:51:36;;;;;;;15.73;8.07;;;3.00;99.90;;;;;;4161903;28;20614;-51
2024/03/21 03:53:38;;;;;;;18.77;8.63;;;3.00;99.90;;;;;;4160017;28;20279;-55
2024/03/21 03:55:39;;;;;;;18.60;9.00;;;2.90;99.90;;;;;;4161706;28;20303;-55
2024/03/21 03:57:40;;;;;;;19.10;8.10;;;2.90;99.90;;;;;;4160586;28;20294;-53
2024/03/21 03:59:41;;;;;;;14.90;7.93;;;2.90;99.90;;;;;;4161165;28;20797;-54
2024/03/21 04:01:43;;;;;;;20.87;8.20;;;2.80;99.90;;;;;;4161437;28;20266;-53
2024/03/21 04:03:44;;;;;;;15.80;8.03;;;2.70;99.90;;;;;;4177616;28;20320;-52
2024/03/21 04:06:01;;;;;;;27.37;12.20;;;2.70;99.90;;;;;;4176996;28;20627;-54
2024/03/21 04:08:02;;;;;;;21.83;10.23;;;2.60;99.90;;;;;;4177830;28;21084;-53
2024/03/21 04:10:07;;;;;;;18.47;8.53;;;2.50;99.90;;;;;;4163904;28;20263;-53
2024/03/21 04:12:08;;;;;;;21.07;10.30;;;2.50;99.90;;;;;;4160993;28;20313;-53
2024/03/21 04:14:09;;;;;;;18.67;9.60;;;2.50;99.90;;;;;;4161332;28;20337;-51
2024/03/21 04:16:17;;;;;;;15.67;8.40;;;2.40;99.90;;;;;;4169451;28;20768;-55
2024/03/21 04:18:18;;;;;;;17.67;9.53;;;2.40;99.90;;;;;;4193322;28;20347;-52
2024/03/21 04:20:19;;;;;;;21.07;10.70;;;2.40;99.90;;;;;;4192877;28;20757;-54
2024/03/21 04:22:21;;;;;;;22.10;10.87;;;2.40;99.90;;;;;;4194022;28;20277;-54
2024/03/21 04:24:22;;;;;;;23.87;10.20;;;2.50;99.90;;;;;;4193411;28;20753;-52
2024/03/21 04:26:24;;;;;;;23.23;9.93;;;2.50;99.90;;;;;;4194042;28;20610;-53
2024/03/21 04:28:25;;;;;;;15.40;9.00;;;2.50;99.90;;;;;;4193022;28;20314;-51
2024/03/21 04:30:26;;;;;;;18.23;9.53;;;2.40;99.90;;;;;;4189630;28;21108;-51
2024/03/21 04:32:28;;;;;;;18.93;9.60;;;2.50;99.90;;;;;;4174640;28;20351;-54
2024/03/21 04:34:29;;;;;;;23.10;10.17;;;2.40;99.90;;;;;;4165849;28;20274;-51
2024/03/21 04:36:30;;;;;;;24.83;11.07;;;2.40;99.90;;;;;;4176389;28;20735;-54
2024/03/21 04:38:31;;;;;;;24.67;10.00;;;2.40;99.90;;;;;;4172641;28;20283;-56
2024/03/21 04:40:33;;;;;;;26.13;11.07;;;2.40;99.90;;;;;;4159661;28;20336;-56
2024/03/21 04:42:34;;;;;;;29.33;11.17;;;2.40;99.90;;;;;;4160307;28;20353;-55
2024/03/21 04:44:36;;;;;;;37.40;12.83;;;2.50;99.90;;;;;;4160557;28;20317;-54
2024/03/21 04:46:37;;;;;;;24.37;10.93;;;2.50;99.90;;;;;;4159922;28;20321;-55
2024/03/21 04:48:39;;;;;;;25.47;11.97;;;2.60;99.90;;;;;;4160442;28;20266;-54
2024/03/21 04:50:41;;;;;;;28.63;9.97;;;2.80;99.90;;;;;;4162074;28;20284;-51
2024/03/21 04:52:42;;;;;;;23.73;10.40;;;3.00;99.90;;;;;;4174904;28;20290;-54
2024/03/21 04:54:50;;;;;;;32.00;10.47;;;3.20;99.90;;;;;;4176318;28;20661;-55
2024/03/21 04:56:52;;;;;;;24.90;13.17;;;3.40;99.90;;;;;;4177442;28;20725;-52
2024/03/21 04:58:53;;;;;;;41.77;14.33;;;3.60;99.90;;;;;;4176181;28;20274;-54
2024/03/21 05:00:54;;;;;;;32.73;13.77;;;3.80;99.90;;;;;;4173662;28;20274;-56
2024/03/21 05:02:55;;;;;;;28.70;12.70;;;4.10;99.90;;;;;;4159806;28;20298;-53
2024/03/21 05:04:57;;;;;;;20.57;11.53;;;4.30;99.90;;;;;;4161115;28;20677;-58
2024/03/21 05:06:58;;;;;;;30.30;11.60;;;4.50;99.90;;;;;;4159903;28;21071;-57
2024/03/21 05:08:59;;;;;;;31.43;11.30;;;4.70;99.90;;;;;;4160492;28;20255;-61
2024/03/21 05:11:01;;;;;;;23.17;11.13;;;4.70;99.90;;;;;;4159737;28;20324;-55
2024/03/21 05:13:02;;;;;;;21.77;9.87;;;4.80;99.90;;;;;;4160156;28;20282;-55
2024/03/21 05:15:04;;;;;;;21.43;10.00;;;5.10;99.90;;;;;;4160343;28;20267;-54
2024/03/21 05:17:05;;;;;;;19.00;9.23;;;5.20;99.90;;;;;;4173088;28;20044;-52
2024/03/21 05:19:06;;;;;;;26.20;10.23;;;5.50;99.90;;;;;;4159857;28;20057;-54
2024/03/21 05:21:09;;;;;;;22.97;10.37;;;6.00;99.90;;;;;;4167404;28;20486;-56
2024/03/21 05:23:10;;;;;;;21.53;11.90;;;6.60;99.90;;;;;;4176838;28;20102;-54
2024/03/21 05:25:11;;;;;;;24.00;12.73;;;7.10;99.90;;;;;;4175795;28;20645;-56
2024/03/21 05:27:15;;;;;;;23.20;12.47;;;7.20;99.90;;;;;;4176917;28;20029;-54
2024/03/21 05:29:16;;;;;;;28.20;13.10;;;7.20;99.90;;;;;;4174057;28;20067;-55
2024/03/21 05:31:24;;;;;;;21.73;11.33;;;7.30;99.90;;;;;;4169868;28;20022;-57
2024/03/21 05:33:26;;;;;;;24.27;11.77;;;7.50;99.90;;;;;;4162444;28;20076;-57
2024/03/21 05:35:28;;;;;;;22.90;11.70;;;8.00;99.90;;;;;;4163757;28;20075;-50
2024/03/21 05:37:29;;;;;;;27.40;12.43;;;8.40;99.90;;;;;;4162812;28;20437;-53
2024/03/21 05:39:30;;;;;;;25.93;12.00;;;8.70;99.90;;;;;;4164934;28;20021;-54
2024/03/21 05:41:31;;;;;;;18.03;10.23;;;9.00;99.90;;;;;;4162832;28;20038;-54
2024/03/21 05:43:34;;;;;;;18.07;9.93;;;9.20;99.90;;;;;;4163681;28;20037;-52
2024/03/21 05:45:35;;;;;;;18.10;9.47;;;9.00;99.90;;;;;;4162454;28;20088;-52
2024/03/21 05:47:37;;;;;;;32.93;12.90;;;8.80;99.90;;;;;;4163175;28;20421;-56
2024/03/21 05:49:38;;;;;;;34.27;15.70;;;8.70;99.90;;;;;;4162263;28;20034;-55
2024/03/21 05:51:39;;;;;;;30.07;14.27;;;8.80;99.90;;;;;;4162745;28;20025;-54
2024/03/21 05:53:40;;;;;;;18.23;10.07;;;9.50;99.90;;;;;;4162446;28;20552;-56
2024/03/21 05:55:42;;;;;;;15.67;9.07;;;10.00;99.90;;;;;;4162327;28;20450;-54
2024/03/21 05:57:44;;;;;;;16.43;8.13;;;10.60;99.90;;;;;;4163338;28;20461;-55
2024/03/21 05:59:45;;;;;;;14.07;7.90;;;11.20;99.30;;;;;;4161778;28;20079;-52
2024/03/21 06:01:46;;;;;;;17.50;8.50;;;11.50;98.30;;;;;;4163254;28;20436;-56
2024/03/21 06:03:48;;;;;;;13.27;7.67;;;11.70;97.80;;;;;;4162169;28;20417;-52
2024/03/21 06:05:49;;;;;;;14.97;7.77;;;11.90;97.30;;;;;;4163234;28;20170;-57
2024/03/21 06:07:50;;;;;;;17.23;8.30;;;12.10;96.80;;;;;;4162076;28;20525;-53
2024/03/21 06:09:52;;;;;;;11.83;7.43;;;12.30;96.70;;;;;;4162533;28;20037;-54
2024/03/21 06:11:53;;;;;;;13.90;6.87;;;12.70;96.30;;;;;;4169850;28;20099;-55
2024/03/21 06:13:54;;;;;;;14.40;8.07;;;12.80;95.50;;;;;;4171703;28;20041;-53
2024/03/21 06:15:55;;;;;;;14.57;6.77;;;12.90;95.20;;;;;;4165605;28;20029;-54
2024/03/21 06:17:57;;;;;;;16.47;6.87;;;13.30;94.60;;;;;;4170490;28;20517;-53
2024/03/21 06:19:58;;;;;;;12.03;5.70;;;13.80;93.80;;;;;;4172861;28;20029;-55
2024/03/21 06:21:59;;;;;;;11.00;6.60;;;14.00;93.20;;;;;;4171848;28;20041;-53
2024/03/21 06:24:00;;;;;;;13.07;7.17;;;13.90;92.60;;;;;;4173447;28;20079;-54
2024/03/21 06:26:02;;;;;;;13.30;7.80;;;14.10;92.40;;;;;;4172147;28;20394;-52
2024/03/21 06:28:06;;;;;;;14.63;7.60;;;14.10;92.20;;;;;;4170697;28;20049;-54
2024/03/21 06:30:07;;;;;;;14.07;7.37;;;14.30;91.90;;;;;;4169682;28;20442;-57
2024/03/21 06:32:09;;;;;;;15.77;7.17;;;14.60;91.70;;;;;;4172380;28;20032;-53
2024/03/21 06:34:10;;;;;;;14.30;7.63;;;14.80;91.30;;;;;;4171973;28;20059;-54
2024/03/21 06:36:11;;;;;;;15.30;9.90;;;14.70;91.10;;;;;;4172983;28;20052;-55
2024/03/21 06:38:12;;;;;;;11.65;8.27;;;15.10;90.70;;;;;;4170153;28;20083;-53
2024/03/21 06:40:14;;;;;;;12.45;8.02;;;15.40;90.20;;;;;;4174655;28;20041;-57
2024/03/21 06:42:15;;;;;;;11.75;7.15;;;15.50;90.20;;;;;;4171950;28;20558;-55
2024/03/21 06:44:16;;;;;;;11.52;6.70;;;15.50;89.40;;;;;;4174800;28;20041;-58
2024/03/21 06:46:17;;;;;;;15.82;6.40;;;15.80;88.70;;;;;;4172296;28;20029;-53
2024/03/21 06:48:19;;;;;;;12.05;7.45;;;16.40;87.50;;;;;;4174152;28;20029;-54
2024/03/21 06:50:20;;;;;;;12.90;6.63;;;16.70;86.20;;;;;;4172880;28;20045;-52
2024/03/21 06:52:21;;;;;;;13.13;7.70;;;16.70;84.70;;;;;;4172982;28;20513;-52
2024/03/21 06:54:23;;;;;;;14.50;7.65;;;16.80;84.80;;;;;;4173135;28;20017;-49
2024/03/21 06:56:25;;;;;;;13.30;8.35;;;17.00;84.20;;;;;;4173482;28;20041;-52
2024/03/21 06:58:27;;;;;;;30.95;7.82;;;17.40;83.40;;;;;;4173350;28;20156;-51
2024/03/21 07:00:28;;;;;;;15.48;8.15;;;17.40;82.50;;;;;;4172233;28;20106;-52
2024/03/21 07:02:30;;;;;;;13.82;7.55;;;17.30;82.20;;;;;;4172831;28;20485;-54
2024/03/21 07:04:31;;;;;;;14.93;7.70;;;17.30;81.70;;;;;;4172662;28;20574;-52
2024/03/21 07:06:32;;;;;;;14.80;7.72;;;17.30;81.00;;;;;;4168618;28;20041;-54
2024/03/21 07:08:33;;;;;;;13.98;7.75;;;16.90;81.40;;;;;;4167587;28;20384;-53
2024/03/21 07:10:34;;;;;;;14.90;7.78;;;16.40;81.30;;;;;;4171223;28;20086;-49
2024/03/21 07:12:36;;;;;;;17.65;7.90;;;16.20;81.60;;;;;;4171909;28;20059;-50
2024/03/21 07:14:37;;;;;;;16.95;7.38;;;15.60;81.80;;;;;;4167740;28;20453;-54
2024/03/21 07:16:38;;;;;;;13.75;7.60;;;15.50;82.30;;;;;;4171189;28;20041;-54
2024/03/21 07:18:39;;;;;;;12.95;6.72;;;15.60;82.80;;;;;;4172682;28;20044;-50
2024/03/21 07:20:41;;;;;;;12.82;7.43;;;14.70;81.90;;;;;;4171144;28;20412;-57
2024/03/21 07:22:43;;;;;;;18.02;7.32;;;14.90;83.00;;;;;;4173306;28;20037;-53
2024/03/21 07:24:44;;;;;;;16.77;7.43;;;15.30;82.70;;;;;;4173368;28;20033;-57
2024/03/21 07:26:45;;;;;;;18.25;7.95;;;15.20;81.50;;;;;;4172633;28;20098;-58
2024/03/21 07:28:46;;;;;;;13.10;7.18;;;14.30;81.90;;;;;;4172717;28;20032;-51
2024/03/21 07:30:54;;;;;;;12.82;7.28;;;14.50;83.10;;;;;;4172186;28;20154;-56
2024/03/21 07:32:55;;;;;;;19.15;7.95;;;14.60;82.20;;;;;;4172020;28;20447;-57
2024/03/21 07:34:56;;;;;;;13.38;7.30;;;13.90;82.70;;;;;;4172981;28;20436;-54
2024/03/21 07:36:58;;;;;;;9.98;6.35;;;13.80;83.60;;;;;;4164723;28;20037;-56
2024/03/21 07:39:00;;;;;;;10.65;6.50;;;14.00;83.40;;;;;;4166506;28;20049;-54
2024/03/21 07:41:02;;;;;;;16.40;7.90;;;13.60;81.70;;;;;;4178507;28;20032;-55
2024/03/21 07:43:03;;;;;;;13.20;5.97;;;13.50;83.40;;;;;;4176716;28;20048;-53
2024/03/21 07:45:08;;;;;;;10.13;5.87;;;13.40;83.70;;;;;;4178669;28;20091;-55
2024/03/21 07:47:09;;;;;;;15.80;7.23;;;13.50;84.60;;;;;;4176785;28;20070;-56
2024/03/21 07:49:11;;;;;;;11.57;6.40;;;13.80;83.80;;;;;;4176697;28;20048;-54
2024/03/21 07:51:12;;;;;;;13.27;6.80;;;13.80;83.30;;;;;;4171735;28;20107;-56
2024/03/21 07:53:14;;;;;;;11.23;6.77;;;13.80;82.90;;;;;;4170175;28;20068;-52
2024/03/21 07:55:16;;;;;;;14.43;7.60;;;14.00;83.10;;;;;;4176481;28;20440;-57
2024/03/21 07:57:18;;;;;;;15.73;7.23;;;14.00;83.20;;;;;;4167791;28;20082;-52
2024/03/21 07:59:21;;;;;;;14.33;6.43;;;14.20;83.50;;;;;;4167928;28;20434;-55
2024/03/21 08:01:25;;;;;;;12.87;6.90;;;14.20;83.00;;;;;;4176833;28;20099;-54
2024/03/21 08:03:26;;;;;;;11.80;7.30;;;14.00;82.60;;;;;;4177869;28;20045;-56
2024/03/21 08:05:27;;;;;;;11.57;7.07;;;13.90;83.20;;;;;;4176051;28;20094;-57
2024/03/21 08:07:28;;;;;;;11.93;8.20;;;13.80;82.80;;;;;;4178331;28;20041;-54
2024/03/21 08:09:29;;;;;;;13.23;7.40;;;13.20;82.80;;;;;;4176757;28;20090;-56
2024/03/21 08:11:31;;;;;;;15.87;7.10;;;12.90;84.20;;;;;;4177593;28;20029;-55
2024/03/21 08:13:32;;;;;;;13.20;7.47;;;13.10;84.00;;;;;;4176871;28;20493;-55
2024/03/21 08:15:33;;;;;;;13.20;6.70;;;13.50;84.20;;;;;;4161423;28;20029;-54
2024/03/21 08:17:35;;;;;;;16.83;7.27;;;13.10;83.30;;;;;;4160295;28;20033;-56
2024/03/21 08:19:36;;;;;;;18.03;7.80;;;13.00;83.70;;;;;;4169730;28;20099;-54
2024/03/21 08:21:38;;;;;;;12.30;7.13;;;13.30;84.20;;;;;;4175846;28;20079;-54
2024/03/21 08:23:39;;;;;;;14.47;6.97;;;13.20;83.20;;;;;;4176681;28;20037;-56
2024/03/21 08:25:40;;;;;;;14.33;7.63;;;13.10;83.70;;;;;;4176634;28;20079;-54
2024/03/21 08:27:43;;;;;;;20.50;8.03;;;13.10;84.00;;;;;;4163404;28;20041;-54
2024/03/21 08:29:49;;;;;;;17.83;7.13;;;13.30;83.90;;;;;;4169014;28;20103;-54
2024/03/21 08:31:50;;;;;;;10.67;6.90;;;13.60;83.90;;;;;;4172518;28;20040;-53
2024/03/21 08:33:53;;;;;;;15.77;7.23;;;13.80;83.10;;;;;;4171923;28;20080;-54
2024/03/21 08:35:55;;;;;;;15.37;7.63;;;13.50;82.30;;;;;;4175394;28;20605;-53
2024/03/21 08:37:56;;;;;;;14.83;7.67;;;13.30;83.10;;;;;;4170126;28;20468;-56
2024/03/21 08:39:58;;;;;;;12.97;6.67;;;13.40;83.10;;;;;;4169791;28;20471;-54
2024/03/21 08:41:59;;;;;;;15.30;7.70;;;13.30;81.90;;;;;;4176897;28;20675;-57
2024/03/21 08:44:00;;;;;;;14.97;7.87;;;13.30;83.20;;;;;;4175786;28;20032;-53
2024/03/21 08:46:02;;;;;;;17.90;7.13;;;13.30;82.80;;;;;;4177642;28;20106;-56
2024/03/21 08:48:03;;;;;;;13.43;6.97;;;13.30;82.10;;;;;;4176553;28;20075;-52
2024/03/21 08:50:05;;;;;;;13.93;6.90;;;13.40;82.40;;;;;;4170268;28;20033;-55
2024/03/21 08:52:06;;;;;;;15.20;7.67;;;13.50;82.50;;;;;;4159554;28;20021;-49
2024/03/21 08:54:08;;;;;;;13.07;7.20;;;13.60;82.40;;;;;;4163172;28;20034;-56
2024/03/21 08:56:09;;;;;;;11.20;7.03;;;13.60;82.20;;;;;;4176147;28;20040;-52
2024/03/21 08:58:11;;;;;;;10.03;6.70;;;13.50;81.10;;;;;;4177332;28;20045;-56
2024/03/21 09:00:14;;;;;;;12.40;6.97;;;13.40;81.70;;;;;;4175687;28;20887;-56
2024/03/21 09:02:18;;;;;;;17.10;8.03;;;13.50;81.60;;;;;;4176272;28;20067;-55
2024/03/21 09:04:20;;;;;;;13.73;7.27;;;13.20;81.10;;;;;;4165779;28;20416;-51
2024/03/21 09:06:21;;;;;;;14.00;6.50;;;13.30;82.00;;;;;;4190814;28;20098;-56
2024/03/21 09:08:23;;;;;;;20.93;6.80;;;12.90;81.20;;;;;;4196289;28;20121;-55
2024/03/21 09:10:24;;;;;;;18.73;7.30;;;12.90;81.90;;;;;;4178996;28;20052;-56
2024/03/21 09:12:25;;;;;;;12.97;6.57;;;12.90;82.60;;;;;;4180301;28;20476;-51
2024/03/21 09:14:26;;;;;;;9.67;6.23;;;13.10;82.40;;;;;;4179194;28;20083;-53
2024/03/21 09:16:28;;;;;;;12.47;6.80;;;13.30;82.00;;;;;;4180307;28;20040;-56
2024/03/21 09:18:29;;;;;;;11.67;6.67;;;13.50;82.20;;;;;;4177588;28;20128;-58
2024/03/21 09:20:30;;;;;;;13.87;6.23;;;13.20;81.10;;;;;;4173895;28;20444;-56
2024/03/21 09:22:32;;;;;;;15.83;7.20;;;12.80;81.90;;;;;;4157445;28;20045;-53
2024/03/21 09:24:33;;;;;;;10.80;6.50;;;13.00;82.40;;;;;;4171949;28;20083;-53
2024/03/21 09:26:34;;;;;;;12.80;6.53;;;13.30;82.30;;;;;;4173732;28;20049;-52
2024/03/21 09:28:37;;;;;;;12.17;6.43;;;13.60;82.00;;;;;;4174633;28;20094;-53
2024/03/21 09:30:38;;;;;;;11.17;6.60;;;13.80;81.00;;;;;;4170257;28;20049;-55
2024/03/21 09:32:40;;;;;;;11.20;6.63;;;13.90;81.20;;;;;;4173211;28;20099;-53
2024/03/21 09:34:42;;;;;;;10.67;5.80;;;14.00;80.70;;;;;;4171521;28;20037;-54
2024/03/21 09:36:48;;;;;;;15.33;6.17;;;14.10;80.80;;;;;;4170952;28;20190;-52
2024/03/21 09:38:49;;;;;;;14.23;6.40;;;13.80;79.70;;;;;;4175612;28;20040;-51
2024/03/21 09:40:51;;;;;;;21.30;6.90;;;13.50;79.70;;;;;;4167799;28;20041;-58
2024/03/21 09:42:54;;;;;;;15.83;6.93;;;13.00;80.60;;;;;;4169085;28;20362;-52
2024/03/21 09:44:56;;;;;;;12.17;5.77;;;12.80;81.50;;;;;;4178584;28;20702;-50
2024/03/21 09:47:00;;;;;;;11.47;5.33;;;12.90;81.10;;;;;;4180374;28;20074;-52
2024/03/21 09:49:01;;;;;;;13.30;5.10;;;12.80;80.80;;;;;;4175478;28;20090;-52
2024/03/21 09:51:02;;;;;;;16.47;6.23;;;12.70;80.90;;;;;;4168264;28;20103;-52
2024/03/21 09:53:03;;;;;;;15.03;6.60;;;12.90;81.50;;;;;;4177835;28;20040;-58
2024/03/21 09:55:12;;;;;;;17.57;6.50;;;12.80;81.20;;;;;;4176820;28;20100;-50
2024/03/21 09:57:14;;;;;;;9.50;5.43;;;12.70;81.40;;;;;;4162664;28;20072;-51
2024/03/21 09:59:15;;;;;;;16.73;5.67;;;12.90;81.20;;;;;;4179837;28;20041;-56
2024/03/21 10:01:24;;;;;;;10.93;5.63;;;13.20;81.20;;;;;;4178647;28;20045;-56
2024/03/21 10:03:25;;;;;;;10.93;5.87;;;13.50;81.50;;;;;;4179729;28;20037;-52
2024/03/21 10:05:26;;;;;;;10.57;5.80;;;13.70;81.00;;;;;;4176652;28;20064;-56
2024/03/21 10:07:27;;;;;;;14.60;5.93;;;13.90;80.70;;;;;;4164760;28;20180;-56
2024/03/21 10:09:28;;;;;;;9.47;5.70;;;13.60;79.90;;;;;;4177816;28;20439;-54
2024/03/21 10:11:30;;;;;;;20.37;7.43;;;13.60;79.90;;;;;;4179126;28;20037;-53
2024/03/21 10:13:33;;;;;;;12.23;6.00;;;13.50;80.20;;;;;;4178215;28;20110;-52
2024/03/21 10:15:36;;;;;;;10.43;5.87;;;13.60;80.60;;;;;;4178916;28;20045;-54
2024/03/21 10:17:38;;;;;;;8.07;5.03;;;13.70;80.30;;;;;;4177431;28;20914;-53
2024/03/21 10:19:39;;;;;;;8.83;5.20;;;13.80;79.70;;;;;;4160922;28;20049;-53
2024/03/21 10:21:41;;;;;;;8.60;5.60;;;13.70;79.80;;;;;;4174301;28;20032;-50
2024/03/21 10:23:43;;;;;;;8.63;5.67;;;13.70;79.60;;;;;;4183479;28;20063;-57
2024/03/21 10:25:48;;;;;;;11.03;5.60;;;13.60;79.60;;;;;;4179463;28;20037;-53
2024/03/21 10:27:50;;;;;;;10.73;5.40;;;13.70;79.80;;;;;;4178199;28;20151;-52
2024/03/21 10:29:55;;;;;;;8.83;4.57;;;13.90;79.80;;;;;;4179012;28;20063;-55
2024/03/21 10:31:57;;;;;;;9.40;5.03;;;14.00;79.60;;;;;;4177787;28;20103;-54
2024/03/21 10:33:58;;;;;;;10.40;5.53;;;14.20;78.90;;;;;;4178070;28;20087;-56